sensor_id;sensor_type;location;lat;lon;timestamp;temperature;humidity
17341;DHT22;8788;49.930;8.660;2023-07-31T00:02:03;20.00;99.90
17341;DHT22;8788;49.930;8.660;2023-07-31T00:04:31;20.00;99.90
17341;DHT22;8788;49.930;8.660;2023-07-31T00:06:59;20.00;99.90
17341;DHT22;8788;49.930;8.660;2023-07-31T00:09:26;20.00;99.90
17341;DHT22;8788;49.930;8.660;2023-07-31T00:11:53;20.00;99.90
17341;DHT22;8788;49.930;8.660;2023-07-31T00:14:20;20.00;99.90
17341;DHT22;8788;49.930;8.660;2023-07-31T00:16:47;20.00;99.90
17341;DHT22;8788;49.930;8.660;2023-07-31T00:19:14;20.00;99.90
17341;DHT22;8788;49.930;8.660;2023-07-31T00:21:41;20.00;99.90
17341;DHT22;8788;49.930;8.660;2023-07-31T00:24:10;20.00;99.90
17341;DHT22;8788;49.930;8.660;2023-07-31T00:26:37;20.00;99.90
17341;DHT22;8788;49.930;8.660;2023-07-31T00:29:04;20.00;99.90
17341;DHT22;8788;49.930;8.660;2023-07-31T00:31:31;20.00;99.90
17341;DHT22;8788;49.930;8.660;2023-07-31T00:33:58;20.00;99.90
17341;DHT22;8788;49.930;8.660;2023-07-31T00:36:26;20.00;99.90
17341;DHT22;8788;49.930;8.660;2023-07-31T00:38:53;20.10;99.90
17341;DHT22;8788;49.930;8.660;2023-07-31T00:41:21;20.10;99.90
17341;DHT22;8788;49.930;8.660;2023-07-31T00:43:48;20.10;99.90
17341;DHT22;8788;49.930;8.660;2023-07-31T00:46:15;20.10;99.90
17341;DHT22;8788;49.930;8.660;2023-07-31T00:48:43;20.10;99.90
17341;DHT22;8788;49.930;8.660;2023-07-31T00:51:10;20.10;99.90
17341;DHT22;8788;49.930;8.660;2023-07-31T00:53:38;20.10;99.90
17341;DHT22;8788;49.930;8.660;2023-07-31T00:56:06;20.10;99.90
17341;DHT22;8788;49.930;8.660;2023-07-31T00:58:35;20.10;99.90
17341;DHT22;8788;49.930;8.660;2023-07-31T01:01:02;20.10;99.90
17341;DHT22;8788;49.930;8.660;2023-07-31T01:03:30;20.10;99.90
17341;DHT22;8788;49.930;8.660;2023-07-31T01:06:05;20.10;99.90
17341;DHT22;8788;49.930;8.660;2023-07-31T01:08:42;20.20;99.90
17341;DHT22;8788;49.930;8.660;2023-07-31T01:11:16;20.20;99.90
17341;DHT22;8788;49.930;8.660;2023-07-31T01:13:46;20.10;99.90
17341;DHT22;8788;49.930;8.660;2023-07-31T01:16:13;20.10;99.90
17341;DHT22;8788;49.930;8.660;2023-07-31T01:18:41;20.10;99.90
17341;DHT22;8788;49.930;8.660;2023-07-31T01:21:23;20.10;99.90
17341;DHT22;8788;49.930;8.660;2023-07-31T01:24:12;20.10;99.90
17341;DHT22;8788;49.930;8.660;2023-07-31T01:26:49;20.10;99.90
17341;DHT22;8788;49.930;8.660;2023-07-31T01:29:23;20.10;99.90
17341;DHT22;8788;49.930;8.660;2023-07-31T01:31:53;20.10;99.90
17341;DHT22;8788;49.930;8.660;2023-07-31T01:34:22;20.10;99.90
17341;DHT22;8788;49.930;8.660;2023-07-31T01:36:49;20.10;99.90
17341;DHT22;8788;49.930;8.660;2023-07-31T01:39:16;20.10;99.90
17341;DHT22;8788;49.930;8.660;2023-07-31T01:41:45;20.10;99.90
17341;DHT22;8788;49.930;8.660;2023-07-31T01:44:12;20.10;99.90
17341;DHT22;8788;49.930;8.660;2023-07-31T01:46:39;20.10;99.90
17341;DHT22;8788;49.930;8.660;2023-07-31T01:49:06;20.10;99.90
17341;DHT22;8788;49.930;8.660;2023-07-31T01:51:33;20.10;99.90
17341;DHT22;8788;49.930;8.660;2023-07-31T01:54:00;20.10;99.90
17341;DHT22;8788;49.930;8.660;2023-07-31T01:56:28;20.10;99.90
17341;DHT22;8788;49.930;8.660;2023-07-31T01:58:56;20.10;99.90
17341;DHT22;8788;49.930;8.660;2023-07-31T02:01:23;20.10;99.90
17341;DHT22;8788;49.930;8.660;2023-07-31T02:03:51;20.00;99.90
17341;DHT22;8788;49.930;8.660;2023-07-31T02:06:18;20.00;99.90
17341;DHT22;8788;49.930;8.660;2023-07-31T02:08:45;20.10;99.90
17341;DHT22;8788;49.930;8.660;2023-07-31T02:11:12;20.10;99.90
17341;DHT22;8788;49.930;8.660;2023-07-31T02:13:39;20.00;99.90
17341;DHT22;8788;49.930;8.660;2023-07-31T02:16:08;20.00;99.90
17341;DHT22;8788;49.930;8.660;2023-07-31T02:18:35;20.00;99.90
17341;DHT22;8788;49.930;8.660;2023-07-31T02:21:02;20.00;99.90
17341;DHT22;8788;49.930;8.660;2023-07-31T02:23:29;19.90;99.90
17341;DHT22;8788;49.930;8.660;2023-07-31T02:25:56;19.90;99.90
17341;DHT22;8788;49.930;8.660;2023-07-31T02:28:23;19.90;99.90
17341;DHT22;8788;49.930;8.660;2023-07-31T02:30:50;19.90;99.90
17341;DHT22;8788;49.930;8.660;2023-07-31T02:33:19;19.90;99.90
17341;DHT22;8788;49.930;8.660;2023-07-31T02:35:46;19.90;99.90
17341;DHT22;8788;49.930;8.660;2023-07-31T02:38:13;19.80;99.90
17341;DHT22;8788;49.930;8.660;2023-07-31T02:40:41;19.90;99.90
17341;DHT22;8788;49.930;8.660;2023-07-31T02:43:08;19.80;99.90
17341;DHT22;8788;49.930;8.660;2023-07-31T02:45:36;19.80;99.90
17341;DHT22;8788;49.930;8.660;2023-07-31T02:48:03;19.80;99.90
17341;DHT22;8788;49.930;8.660;2023-07-31T02:50:32;19.80;99.90
17341;DHT22;8788;49.930;8.660;2023-07-31T02:52:59;19.80;99.90
17341;DHT22;8788;49.930;8.660;2023-07-31T02:55:26;19.80;99.90
17341;DHT22;8788;49.930;8.660;2023-07-31T02:57:54;19.80;99.90
17341;DHT22;8788;49.930;8.660;2023-07-31T03:00:21;19.80;99.90
17341;DHT22;8788;49.930;8.660;2023-07-31T03:02:48;19.80;99.90
17341;DHT22;8788;49.930;8.660;2023-07-31T03:05:15;19.80;99.90
17341;DHT22;8788;49.930;8.660;2023-07-31T03:07:44;19.80;99.90
17341;DHT22;8788;49.930;8.660;2023-07-31T03:10:11;19.80;99.90
17341;DHT22;8788;49.930;8.660;2023-07-31T03:12:38;19.80;99.90
17341;DHT22;8788;49.930;8.660;2023-07-31T03:15:06;19.80;99.90
17341;DHT22;8788;49.930;8.660;2023-07-31T03:17:33;19.80;99.90
17341;DHT22;8788;49.930;8.660;2023-07-31T03:20:00;19.80;99.90
17341;DHT22;8788;49.930;8.660;2023-07-31T03:22:27;19.80;99.90
17341;DHT22;8788;49.930;8.660;2023-07-31T03:24:56;19.80;99.90
17341;DHT22;8788;49.930;8.660;2023-07-31T03:27:23;19.80;99.90
17341;DHT22;8788;49.930;8.660;2023-07-31T03:29:50;19.80;99.90
17341;DHT22;8788;49.930;8.660;2023-07-31T03:32:17;19.80;99.90
17341;DHT22;8788;49.930;8.660;2023-07-31T03:34:44;19.70;99.90
17341;DHT22;8788;49.930;8.660;2023-07-31T03:37:11;19.70;99.90
17341;DHT22;8788;49.930;8.660;2023-07-31T03:39:38;19.70;99.90
17341;DHT22;8788;49.930;8.660;2023-07-31T03:42:08;19.60;99.90
17341;DHT22;8788;49.930;8.660;2023-07-31T03:44:35;19.50;99.90
17341;DHT22;8788;49.930;8.660;2023-07-31T03:47:02;19.50;99.90
17341;DHT22;8788;49.930;8.660;2023-07-31T03:49:29;19.40;99.90
17341;DHT22;8788;49.930;8.660;2023-07-31T03:51:56;19.50;99.90
17341;DHT22;8788;49.930;8.660;2023-07-31T03:54:23;19.40;99.90
17341;DHT22;8788;49.930;8.660;2023-07-31T03:56:50;19.40;99.90
17341;DHT22;8788;49.930;8.660;2023-07-31T03:59:19;19.30;99.90
17341;DHT22;8788;49.930;8.660;2023-07-31T04:01:46;19.30;99.90
17341;DHT22;8788;49.930;8.660;2023-07-31T04:04:13;19.30;99.90
17341;DHT22;8788;49.930;8.660;2023-07-31T04:06:40;19.30;99.90
17341;DHT22;8788;49.930;8.660;2023-07-31T04:09:07;19.30;99.90
17341;DHT22;8788;49.930;8.660;2023-07-31T04:11:34;19.20;99.90
17341;DHT22;8788;49.930;8.660;2023-07-31T04:14:01;19.10;99.90
17341;DHT22;8788;49.930;8.660;2023-07-31T04:16:29;19.00;99.90
17341;DHT22;8788;49.930;8.660;2023-07-31T04:18:56;19.00;99.90
17341;DHT22;8788;49.930;8.660;2023-07-31T04:21:23;19.00;99.90
17341;DHT22;8788;49.930;8.660;2023-07-31T04:23:50;18.90;99.90
17341;DHT22;8788;49.930;8.660;2023-07-31T04:26:21;19.00;99.90
17341;DHT22;8788;49.930;8.660;2023-07-31T04:28:48;19.00;99.90
17341;DHT22;8788;49.930;8.660;2023-07-31T04:31:15;18.90;99.90
17341;DHT22;8788;49.930;8.660;2023-07-31T04:33:43;19.00;99.90
17341;DHT22;8788;49.930;8.660;2023-07-31T04:36:11;18.90;99.90
17341;DHT22;8788;49.930;8.660;2023-07-31T04:38:38;18.90;99.90
17341;DHT22;8788;49.930;8.660;2023-07-31T04:41:06;19.00;99.90
17341;DHT22;8788;49.930;8.660;2023-07-31T04:43:33;19.00;99.90
17341;DHT22;8788;49.930;8.660;2023-07-31T04:46:00;19.00;99.90
17341;DHT22;8788;49.930;8.660;2023-07-31T04:48:27;19.00;99.90
17341;DHT22;8788;49.930;8.660;2023-07-31T04:50:56;19.00;99.90
17341;DHT22;8788;49.930;8.660;2023-07-31T04:53:23;19.00;99.90
17341;DHT22;8788;49.930;8.660;2023-07-31T04:55:50;19.00;99.90
17341;DHT22;8788;49.930;8.660;2023-07-31T04:58:17;19.10;99.90
17341;DHT22;8788;49.930;8.660;2023-07-31T05:00:44;19.10;99.90
17341;DHT22;8788;49.930;8.660;2023-07-31T05:03:12;19.10;99.90
17341;DHT22;8788;49.930;8.660;2023-07-31T05:05:39;19.10;99.90
17341;DHT22;8788;49.930;8.660;2023-07-31T05:08:07;19.10;99.90
17341;DHT22;8788;49.930;8.660;2023-07-31T05:10:34;19.20;99.90
17341;DHT22;8788;49.930;8.660;2023-07-31T05:13:01;19.20;99.90
17341;DHT22;8788;49.930;8.660;2023-07-31T05:15:28;19.20;99.90
17341;DHT22;8788;49.930;8.660;2023-07-31T05:17:55;19.30;99.90
17341;DHT22;8788;49.930;8.660;2023-07-31T05:20:22;19.30;99.90
17341;DHT22;8788;49.930;8.660;2023-07-31T05:22:50;19.30;99.90
17341;DHT22;8788;49.930;8.660;2023-07-31T05:25:19;19.30;99.90
17341;DHT22;8788;49.930;8.660;2023-07-31T05:27:46;19.30;99.90
17341;DHT22;8788;49.930;8.660;2023-07-31T05:30:13;19.30;99.90
17341;DHT22;8788;49.930;8.660;2023-07-31T05:32:40;19.30;99.90
17341;DHT22;8788;49.930;8.660;2023-07-31T05:35:07;19.30;99.90
17341;DHT22;8788;49.930;8.660;2023-07-31T05:37:34;19.30;99.90
17341;DHT22;8788;49.930;8.660;2023-07-31T05:40:02;19.40;99.90
17341;DHT22;8788;49.930;8.660;2023-07-31T05:42:30;19.40;99.90
17341;DHT22;8788;49.930;8.660;2023-07-31T05:44:57;19.40;99.90
17341;DHT22;8788;49.930;8.660;2023-07-31T05:47:24;19.30;99.90
17341;DHT22;8788;49.930;8.660;2023-07-31T05:49:51;19.40;99.90
17341;DHT22;8788;49.930;8.660;2023-07-31T05:52:19;19.40;99.90
17341;DHT22;8788;49.930;8.660;2023-07-31T05:54:46;19.40;99.90
17341;DHT22;8788;49.930;8.660;2023-07-31T05:57:13;19.60;99.90
17341;DHT22;8788;49.930;8.660;2023-07-31T05:59:41;19.70;99.90
17341;DHT22;8788;49.930;8.660;2023-07-31T06:02:08;19.80;99.90
17341;DHT22;8788;49.930;8.660;2023-07-31T06:04:35;19.80;99.90
17341;DHT22;8788;49.930;8.660;2023-07-31T06:07:03;19.80;99.90
17341;DHT22;8788;49.930;8.660;2023-07-31T06:09:30;19.80;99.90
17341;DHT22;8788;49.930;8.660;2023-07-31T06:11:57;19.90;99.90
17341;DHT22;8788;49.930;8.660;2023-07-31T06:14:25;19.90;99.90
17341;DHT22;8788;49.930;8.660;2023-07-31T06:16:53;19.90;99.90
17341;DHT22;8788;49.930;8.660;2023-07-31T06:19:20;19.90;99.90
17341;DHT22;8788;49.930;8.660;2023-07-31T06:21:47;20.00;99.90
17341;DHT22;8788;49.930;8.660;2023-07-31T06:24:14;20.10;99.90
17341;DHT22;8788;49.930;8.660;2023-07-31T06:26:44;20.10;99.90
17341;DHT22;8788;49.930;8.660;2023-07-31T06:29:11;20.10;99.90
17341;DHT22;8788;49.930;8.660;2023-07-31T06:31:38;20.20;99.90
17341;DHT22;8788;49.930;8.660;2023-07-31T06:34:08;20.20;99.90
17341;DHT22;8788;49.930;8.660;2023-07-31T06:36:35;20.20;99.90
17341;DHT22;8788;49.930;8.660;2023-07-31T06:39:02;20.30;99.90
17341;DHT22;8788;49.930;8.660;2023-07-31T06:41:29;20.30;99.90
17341;DHT22;8788;49.930;8.660;2023-07-31T06:43:56;20.40;99.90
17341;DHT22;8788;49.930;8.660;2023-07-31T06:46:23;20.60;99.90
17341;DHT22;8788;49.930;8.660;2023-07-31T06:48:51;20.70;99.90
17341;DHT22;8788;49.930;8.660;2023-07-31T06:51:19;20.70;99.90
17341;DHT22;8788;49.930;8.660;2023-07-31T06:53:46;20.70;99.90
17341;DHT22;8788;49.930;8.660;2023-07-31T06:56:13;20.70;99.90
17341;DHT22;8788;49.930;8.660;2023-07-31T06:58:40;20.60;99.90
17341;DHT22;8788;49.930;8.660;2023-07-31T07:01:07;20.60;99.90
17341;DHT22;8788;49.930;8.660;2023-07-31T07:03:34;20.60;99.90
17341;DHT22;8788;49.930;8.660;2023-07-31T07:06:01;20.60;99.90
17341;DHT22;8788;49.930;8.660;2023-07-31T07:08:30;20.50;99.90
17341;DHT22;8788;49.930;8.660;2023-07-31T07:10:57;20.50;99.90
17341;DHT22;8788;49.930;8.660;2023-07-31T07:13:24;20.60;99.90
17341;DHT22;8788;49.930;8.660;2023-07-31T07:15:51;20.60;99.90
17341;DHT22;8788;49.930;8.660;2023-07-31T07:18:18;20.50;99.90
17341;DHT22;8788;49.930;8.660;2023-07-31T07:20:47;20.60;99.90
17341;DHT22;8788;49.930;8.660;2023-07-31T07:23:14;20.70;99.90
17341;DHT22;8788;49.930;8.660;2023-07-31T07:25:43;21.00;99.90
17341;DHT22;8788;49.930;8.660;2023-07-31T07:28:10;21.30;99.90
17341;DHT22;8788;49.930;8.660;2023-07-31T07:30:38;21.50;99.90
17341;DHT22;8788;49.930;8.660;2023-07-31T07:33:05;21.60;99.90
17341;DHT22;8788;49.930;8.660;2023-07-31T07:35:33;21.80;99.90
17341;DHT22;8788;49.930;8.660;2023-07-31T07:38:01;21.80;99.90
17341;DHT22;8788;49.930;8.660;2023-07-31T07:40:28;22.00;99.90
17341;DHT22;8788;49.930;8.660;2023-07-31T07:42:57;22.00;99.90
17341;DHT22;8788;49.930;8.660;2023-07-31T07:45:25;21.80;99.90
17341;DHT22;8788;49.930;8.660;2023-07-31T07:47:52;21.70;99.90
17341;DHT22;8788;49.930;8.660;2023-07-31T07:50:19;21.80;99.90
17341;DHT22;8788;49.930;8.660;2023-07-31T07:52:47;21.60;99.90
17341;DHT22;8788;49.930;8.660;2023-07-31T07:55:14;21.60;99.90
17341;DHT22;8788;49.930;8.660;2023-07-31T07:57:41;21.70;99.90
17341;DHT22;8788;49.930;8.660;2023-07-31T08:00:12;21.70;99.90
17341;DHT22;8788;49.930;8.660;2023-07-31T08:02:39;21.80;99.90
17341;DHT22;8788;49.930;8.660;2023-07-31T08:05:07;21.90;99.90
17341;DHT22;8788;49.930;8.660;2023-07-31T08:07:34;22.00;99.90
17341;DHT22;8788;49.930;8.660;2023-07-31T08:10:01;22.10;99.90
17341;DHT22;8788;49.930;8.660;2023-07-31T08:12:28;22.10;99.90
17341;DHT22;8788;49.930;8.660;2023-07-31T08:14:55;22.30;99.90
17341;DHT22;8788;49.930;8.660;2023-07-31T08:17:24;22.40;99.90
17341;DHT22;8788;49.930;8.660;2023-07-31T08:19:51;22.60;99.90
17341;DHT22;8788;49.930;8.660;2023-07-31T08:22:18;22.60;99.90
17341;DHT22;8788;49.930;8.660;2023-07-31T08:24:45;22.80;99.90
17341;DHT22;8788;49.930;8.660;2023-07-31T08:27:12;22.90;99.90
17341;DHT22;8788;49.930;8.660;2023-07-31T08:29:39;23.10;99.90
17341;DHT22;8788;49.930;8.660;2023-07-31T08:32:06;23.30;99.90
17341;DHT22;8788;49.930;8.660;2023-07-31T08:34:35;23.40;99.90
17341;DHT22;8788;49.930;8.660;2023-07-31T08:37:02;23.50;99.90
17341;DHT22;8788;49.930;8.660;2023-07-31T08:39:29;23.50;99.90
17341;DHT22;8788;49.930;8.660;2023-07-31T08:41:58;23.40;99.90
17341;DHT22;8788;49.930;8.660;2023-07-31T08:44:26;23.40;99.90
17341;DHT22;8788;49.930;8.660;2023-07-31T08:46:53;23.40;99.90
17341;DHT22;8788;49.930;8.660;2023-07-31T08:49:20;23.30;99.90
17341;DHT22;8788;49.930;8.660;2023-07-31T08:51:50;23.20;99.90
17341;DHT22;8788;49.930;8.660;2023-07-31T08:54:19;23.10;99.90
17341;DHT22;8788;49.930;8.660;2023-07-31T08:56:46;23.10;99.90
17341;DHT22;8788;49.930;8.660;2023-07-31T08:59:15;23.30;99.90
17341;DHT22;8788;49.930;8.660;2023-07-31T09:01:48;23.40;99.90
17341;DHT22;8788;49.930;8.660;2023-07-31T09:04:16;23.40;99.90
17341;DHT22;8788;49.930;8.660;2023-07-31T09:06:45;23.40;99.90
17341;DHT22;8788;49.930;8.660;2023-07-31T09:09:15;23.30;99.90
17341;DHT22;8788;49.930;8.660;2023-07-31T09:11:43;23.30;99.90
17341;DHT22;8788;49.930;8.660;2023-07-31T09:14:10;23.30;99.90
17341;DHT22;8788;49.930;8.660;2023-07-31T09:16:51;23.30;99.90
17341;DHT22;8788;49.930;8.660;2023-07-31T09:19:25;23.20;99.90
17341;DHT22;8788;49.930;8.660;2023-07-31T09:21:52;23.10;99.90
17341;DHT22;8788;49.930;8.660;2023-07-31T09:24:26;22.90;99.90
17341;DHT22;8788;49.930;8.660;2023-07-31T09:26:54;22.80;99.90
17341;DHT22;8788;49.930;8.660;2023-07-31T09:29:22;22.80;99.90
17341;DHT22;8788;49.930;8.660;2023-07-31T09:31:49;22.80;99.90
17341;DHT22;8788;49.930;8.660;2023-07-31T09:34:17;22.80;99.90
17341;DHT22;8788;49.930;8.660;2023-07-31T09:36:46;22.80;99.90
17341;DHT22;8788;49.930;8.660;2023-07-31T09:39:14;22.80;99.90
17341;DHT22;8788;49.930;8.660;2023-07-31T09:41:44;23.10;99.90
17341;DHT22;8788;49.930;8.660;2023-07-31T09:44:12;23.30;99.90
17341;DHT22;8788;49.930;8.660;2023-07-31T09:46:39;23.40;99.90
17341;DHT22;8788;49.930;8.660;2023-07-31T09:49:07;23.50;99.90
17341;DHT22;8788;49.930;8.660;2023-07-31T09:51:36;23.60;99.90
17341;DHT22;8788;49.930;8.660;2023-07-31T09:54:09;23.60;99.90
17341;DHT22;8788;49.930;8.660;2023-07-31T09:56:41;23.70;99.90
17341;DHT22;8788;49.930;8.660;2023-07-31T09:59:11;23.70;99.90
17341;DHT22;8788;49.930;8.660;2023-07-31T10:01:40;23.60;99.80
17341;DHT22;8788;49.930;8.660;2023-07-31T10:04:08;23.60;99.60
17341;DHT22;8788;49.930;8.660;2023-07-31T10:06:36;23.60;99.20
17341;DHT22;8788;49.930;8.660;2023-07-31T10:09:07;23.50;99.30
17341;DHT22;8788;49.930;8.660;2023-07-31T10:11:37;23.50;99.60
17341;DHT22;8788;49.930;8.660;2023-07-31T10:14:05;23.40;99.80
17341;DHT22;8788;49.930;8.660;2023-07-31T10:16:37;23.50;99.90
17341;DHT22;8788;49.930;8.660;2023-07-31T10:19:05;23.60;99.90
17341;DHT22;8788;49.930;8.660;2023-07-31T10:21:34;23.70;99.50
17341;DHT22;8788;49.930;8.660;2023-07-31T10:24:03;23.80;99.00
17341;DHT22;8788;49.930;8.660;2023-07-31T10:26:32;24.00;98.50
17341;DHT22;8788;49.930;8.660;2023-07-31T10:29:00;24.10;98.40
17341;DHT22;8788;49.930;8.660;2023-07-31T10:31:27;24.10;97.70
17341;DHT22;8788;49.930;8.660;2023-07-31T10:33:57;24.10;97.80
17341;DHT22;8788;49.930;8.660;2023-07-31T10:36:25;24.20;97.70
17341;DHT22;8788;49.930;8.660;2023-07-31T10:38:52;24.10;97.30
17341;DHT22;8788;49.930;8.660;2023-07-31T10:41:28;24.20;97.50
17341;DHT22;8788;49.930;8.660;2023-07-31T10:43:57;24.40;97.50
17341;DHT22;8788;49.930;8.660;2023-07-31T10:46:25;24.70;97.20
17341;DHT22;8788;49.930;8.660;2023-07-31T10:49:00;24.70;97.20
17341;DHT22;8788;49.930;8.660;2023-07-31T10:51:33;24.90;96.90
17341;DHT22;8788;49.930;8.660;2023-07-31T10:54:14;25.00;96.90
17341;DHT22;8788;49.930;8.660;2023-07-31T10:56:45;25.30;96.80
17341;DHT22;8788;49.930;8.660;2023-07-31T10:59:12;25.60;95.60
17341;DHT22;8788;49.930;8.660;2023-07-31T11:01:52;25.70;95.70
17341;DHT22;8788;49.930;8.660;2023-07-31T11:04:24;25.80;95.20
17341;DHT22;8788;49.930;8.660;2023-07-31T11:06:56;25.70;94.70
17341;DHT22;8788;49.930;8.660;2023-07-31T11:09:25;25.60;94.80
17341;DHT22;8788;49.930;8.660;2023-07-31T11:11:54;25.40;94.50
17341;DHT22;8788;49.930;8.660;2023-07-31T11:14:22;25.20;94.20
17341;DHT22;8788;49.930;8.660;2023-07-31T11:16:50;25.00;93.90
17341;DHT22;8788;49.930;8.660;2023-07-31T11:19:23;24.70;94.20
17341;DHT22;8788;49.930;8.660;2023-07-31T11:21:51;24.40;94.70
17341;DHT22;8788;49.930;8.660;2023-07-31T11:24:18;24.30;95.20
17341;DHT22;8788;49.930;8.660;2023-07-31T11:26:50;24.20;95.20
17341;DHT22;8788;49.930;8.660;2023-07-31T11:29:17;24.30;95.60
17341;DHT22;8788;49.930;8.660;2023-07-31T11:31:44;24.60;95.80
17341;DHT22;8788;49.930;8.660;2023-07-31T11:34:12;24.80;95.30
17341;DHT22;8788;49.930;8.660;2023-07-31T11:36:40;25.20;94.60
17341;DHT22;8788;49.930;8.660;2023-07-31T11:39:08;25.30;94.00
17341;DHT22;8788;49.930;8.660;2023-07-31T11:41:36;25.40;94.10
17341;DHT22;8788;49.930;8.660;2023-07-31T11:44:07;25.50;93.90
17341;DHT22;8788;49.930;8.660;2023-07-31T11:46:34;25.50;93.80
17341;DHT22;8788;49.930;8.660;2023-07-31T11:49:02;25.40;93.70
17341;DHT22;8788;49.930;8.660;2023-07-31T11:51:29;25.30;93.80
17341;DHT22;8788;49.930;8.660;2023-07-31T11:54:00;25.20;94.00
17341;DHT22;8788;49.930;8.660;2023-07-31T11:56:27;24.90;93.90
17341;DHT22;8788;49.930;8.660;2023-07-31T11:58:57;24.60;94.20
17341;DHT22;8788;49.930;8.660;2023-07-31T12:01:25;24.50;94.50
17341;DHT22;8788;49.930;8.660;2023-07-31T12:03:53;24.40;94.70
17341;DHT22;8788;49.930;8.660;2023-07-31T12:06:21;24.30;94.80
17341;DHT22;8788;49.930;8.660;2023-07-31T12:08:48;24.20;95.30
17341;DHT22;8788;49.930;8.660;2023-07-31T12:11:17;24.30;95.60
17341;DHT22;8788;49.930;8.660;2023-07-31T12:13:44;24.40;95.50
17341;DHT22;8788;49.930;8.660;2023-07-31T12:16:11;24.40;95.50
17341;DHT22;8788;49.930;8.660;2023-07-31T12:18:39;24.30;95.40
17341;DHT22;8788;49.930;8.660;2023-07-31T12:21:07;24.20;95.60
17341;DHT22;8788;49.930;8.660;2023-07-31T12:23:36;24.20;95.90
17341;DHT22;8788;49.930;8.660;2023-07-31T12:26:04;24.30;96.30
17341;DHT22;8788;49.930;8.660;2023-07-31T12:28:36;24.20;96.10
17341;DHT22;8788;49.930;8.660;2023-07-31T12:31:05;24.00;96.10
17341;DHT22;8788;49.930;8.660;2023-07-31T12:33:34;23.90;96.40
17341;DHT22;8788;49.930;8.660;2023-07-31T12:36:02;23.90;96.50
17341;DHT22;8788;49.930;8.660;2023-07-31T12:38:29;23.80;96.60
17341;DHT22;8788;49.930;8.660;2023-07-31T12:40:57;23.80;96.80
17341;DHT22;8788;49.930;8.660;2023-07-31T12:43:24;23.70;96.80
17341;DHT22;8788;49.930;8.660;2023-07-31T12:45:54;23.60;96.80
17341;DHT22;8788;49.930;8.660;2023-07-31T12:48:22;23.60;96.80
17341;DHT22;8788;49.930;8.660;2023-07-31T12:50:49;23.50;96.80
17341;DHT22;8788;49.930;8.660;2023-07-31T12:53:16;23.60;96.90
17341;DHT22;8788;49.930;8.660;2023-07-31T12:55:43;23.60;96.90
17341;DHT22;8788;49.930;8.660;2023-07-31T12:58:10;23.70;96.90
17341;DHT22;8788;49.930;8.660;2023-07-31T13:00:37;23.70;96.90
17341;DHT22;8788;49.930;8.660;2023-07-31T13:03:06;23.80;96.80
17341;DHT22;8788;49.930;8.660;2023-07-31T13:05:33;23.90;96.90
17341;DHT22;8788;49.930;8.660;2023-07-31T13:08:00;23.90;96.80
17341;DHT22;8788;49.930;8.660;2023-07-31T13:10:27;23.90;97.10
17341;DHT22;8788;49.930;8.660;2023-07-31T13:12:55;23.90;96.90
17341;DHT22;8788;49.930;8.660;2023-07-31T13:15:22;23.90;96.80
17341;DHT22;8788;49.930;8.660;2023-07-31T13:17:49;24.00;96.70
17341;DHT22;8788;49.930;8.660;2023-07-31T13:20:18;24.00;96.70
17341;DHT22;8788;49.930;8.660;2023-07-31T13:22:45;24.00;96.50
17341;DHT22;8788;49.930;8.660;2023-07-31T13:25:12;24.10;96.80
17341;DHT22;8788;49.930;8.660;2023-07-31T13:27:39;24.20;96.60
17341;DHT22;8788;49.930;8.660;2023-07-31T13:30:07;24.20;96.50
17341;DHT22;8788;49.930;8.660;2023-07-31T13:32:34;24.20;96.50
17341;DHT22;8788;49.930;8.660;2023-07-31T13:35:05;24.20;96.30
17341;DHT22;8788;49.930;8.660;2023-07-31T13:37:33;24.20;96.30
17341;DHT22;8788;49.930;8.660;2023-07-31T13:40:01;24.30;96.20
17341;DHT22;8788;49.930;8.660;2023-07-31T13:42:30;24.30;96.30
17341;DHT22;8788;49.930;8.660;2023-07-31T13:44:57;24.40;96.10
17341;DHT22;8788;49.930;8.660;2023-07-31T13:47:24;24.30;96.00
17341;DHT22;8788;49.930;8.660;2023-07-31T13:49:51;24.20;95.90
17341;DHT22;8788;49.930;8.660;2023-07-31T13:52:18;24.10;96.00
17341;DHT22;8788;49.930;8.660;2023-07-31T13:54:47;24.10;96.20
17341;DHT22;8788;49.930;8.660;2023-07-31T13:57:14;24.10;96.30
17341;DHT22;8788;49.930;8.660;2023-07-31T13:59:41;24.10;96.40
17341;DHT22;8788;49.930;8.660;2023-07-31T14:02:08;24.00;96.50
17341;DHT22;8788;49.930;8.660;2023-07-31T14:04:35;24.00;96.70
17341;DHT22;8788;49.930;8.660;2023-07-31T14:07:03;23.90;96.80
17341;DHT22;8788;49.930;8.660;2023-07-31T14:09:30;23.90;96.90
17341;DHT22;8788;49.930;8.660;2023-07-31T14:11:58;23.90;97.10
17341;DHT22;8788;49.930;8.660;2023-07-31T14:14:25;23.80;97.10
17341;DHT22;8788;49.930;8.660;2023-07-31T14:16:52;23.80;97.20
17341;DHT22;8788;49.930;8.660;2023-07-31T14:19:19;23.70;97.00
17341;DHT22;8788;49.930;8.660;2023-07-31T14:21:47;23.60;97.20
17341;DHT22;8788;49.930;8.660;2023-07-31T14:24:14;23.60;97.40
17341;DHT22;8788;49.930;8.660;2023-07-31T14:26:41;23.60;97.50
17341;DHT22;8788;49.930;8.660;2023-07-31T14:29:09;23.60;97.50
17341;DHT22;8788;49.930;8.660;2023-07-31T14:31:36;23.50;97.60
17341;DHT22;8788;49.930;8.660;2023-07-31T14:34:03;23.60;97.70
17341;DHT22;8788;49.930;8.660;2023-07-31T14:36:30;23.60;97.60
17341;DHT22;8788;49.930;8.660;2023-07-31T14:38:57;23.50;97.70
17341;DHT22;8788;49.930;8.660;2023-07-31T14:41:24;23.50;97.70
17341;DHT22;8788;49.930;8.660;2023-07-31T14:43:51;23.40;97.80
17341;DHT22;8788;49.930;8.660;2023-07-31T14:46:20;23.40;97.80
17341;DHT22;8788;49.930;8.660;2023-07-31T14:48:47;23.40;97.90
17341;DHT22;8788;49.930;8.660;2023-07-31T14:51:14;23.40;97.70
17341;DHT22;8788;49.930;8.660;2023-07-31T14:53:42;23.50;97.70
17341;DHT22;8788;49.930;8.660;2023-07-31T14:56:09;23.50;97.50
17341;DHT22;8788;49.930;8.660;2023-07-31T14:58:36;23.40;97.50
17341;DHT22;8788;49.930;8.660;2023-07-31T15:01:03;23.40;97.60
17341;DHT22;8788;49.930;8.660;2023-07-31T15:03:32;23.40;97.80
17341;DHT22;8788;49.930;8.660;2023-07-31T15:05:59;23.50;97.70
17341;DHT22;8788;49.930;8.660;2023-07-31T15:08:26;23.50;97.70
17341;DHT22;8788;49.930;8.660;2023-07-31T15:10:54;23.40;97.60
17341;DHT22;8788;49.930;8.660;2023-07-31T15:13:23;23.30;97.80
17341;DHT22;8788;49.930;8.660;2023-07-31T15:15:50;23.30;97.90
17341;DHT22;8788;49.930;8.660;2023-07-31T15:18:17;23.30;98.00
17341;DHT22;8788;49.930;8.660;2023-07-31T15:20:46;23.20;98.10
17341;DHT22;8788;49.930;8.660;2023-07-31T15:23:13;23.20;98.30
17341;DHT22;8788;49.930;8.660;2023-07-31T15:25:40;23.20;98.30
17341;DHT22;8788;49.930;8.660;2023-07-31T15:28:08;23.20;98.50
17341;DHT22;8788;49.930;8.660;2023-07-31T15:30:35;23.20;98.60
17341;DHT22;8788;49.930;8.660;2023-07-31T15:33:03;23.10;98.60
17341;DHT22;8788;49.930;8.660;2023-07-31T15:35:30;23.10;98.70
17341;DHT22;8788;49.930;8.660;2023-07-31T15:37:58;23.10;98.80
17341;DHT22;8788;49.930;8.660;2023-07-31T15:40:25;23.10;98.90
17341;DHT22;8788;49.930;8.660;2023-07-31T15:42:52;23.10;99.00
17341;DHT22;8788;49.930;8.660;2023-07-31T15:45:19;23.10;99.00
17341;DHT22;8788;49.930;8.660;2023-07-31T15:47:48;23.10;99.10
17341;DHT22;8788;49.930;8.660;2023-07-31T15:50:15;23.10;99.00